sensor_id;sensor_type;location;lat;lon;timestamp;P1;durP1;ratioP1;P2;durP2;ratioP2
40252;SDS011;25972;51.854;4.534;2023-02-28T00:00:29;5.83;;;2.13;;
40252;SDS011;25972;51.854;4.534;2023-02-28T00:02:56;4.17;;;1.90;;
40252;SDS011;25972;51.854;4.534;2023-02-28T00:05:23;5.07;;;1.90;;
40252;SDS011;25972;51.854;4.534;2023-02-28T00:07:50;5.37;;;2.13;;
40252;SDS011;25972;51.854;4.534;2023-02-28T00:10:24;6.67;;;1.90;;
40252;SDS011;25972;51.854;4.534;2023-02-28T00:13:02;8.40;;;1.90;;
40252;SDS011;25972;51.854;4.534;2023-02-28T00:15:38;5.20;;;1.73;;
40252;SDS011;25972;51.854;4.534;2023-02-28T00:18:15;4.83;;;1.90;;
40252;SDS011;25972;51.854;4.534;2023-02-28T00:20:41;4.93;;;1.70;;
40252;SDS011;25972;51.854;4.534;2023-02-28T00:23:07;6.47;;;2.10;;
40252;SDS011;25972;51.854;4.534;2023-02-28T00:25:49;6.40;;;1.87;;
40252;SDS011;25972;51.854;4.534;2023-02-28T00:28:15;4.27;;;1.90;;
40252;SDS011;25972;51.854;4.534;2023-02-28T00:30:41;5.33;;;2.00;;
40252;SDS011;25972;51.854;4.534;2023-02-28T00:33:07;4.40;;;2.00;;
40252;SDS011;25972;51.854;4.534;2023-02-28T00:35:33;4.77;;;1.83;;
40252;SDS011;25972;51.854;4.534;2023-02-28T00:37:59;7.27;;;1.90;;
40252;SDS011;25972;51.854;4.534;2023-02-28T00:40:26;3.40;;;1.47;;
40252;SDS011;25972;51.854;4.534;2023-02-28T00:42:52;6.73;;;1.90;;
40252;SDS011;25972;51.854;4.534;2023-02-28T00:45:18;4.13;;;1.60;;
40252;SDS011;25972;51.854;4.534;2023-02-28T00:47:44;4.90;;;1.87;;
40252;SDS011;25972;51.854;4.534;2023-02-28T00:50:15;5.60;;;1.80;;
40252;SDS011;25972;51.854;4.534;2023-02-28T00:52:42;6.17;;;2.07;;
40252;SDS011;25972;51.854;4.534;2023-02-28T00:55:09;5.40;;;1.67;;
40252;SDS011;25972;51.854;4.534;2023-02-28T00:57:39;3.23;;;1.67;;
40252;SDS011;25972;51.854;4.534;2023-02-28T01:00:05;5.30;;;1.67;;
40252;SDS011;25972;51.854;4.534;2023-02-28T01:02:32;5.00;;;1.97;;
40252;SDS011;25972;51.854;4.534;2023-02-28T01:04:58;3.30;;;1.57;;
40252;SDS011;25972;51.854;4.534;2023-02-28T01:07:24;4.03;;;1.80;;
40252;SDS011;25972;51.854;4.534;2023-02-28T01:09:49;2.67;;;1.60;;
40252;SDS011;25972;51.854;4.534;2023-02-28T01:12:15;4.17;;;1.87;;
40252;SDS011;25972;51.854;4.534;2023-02-28T01:14:41;8.32;;;1.85;;
40252;SDS011;25972;51.854;4.534;2023-02-28T01:17:08;6.77;;;2.13;;
40252;SDS011;25972;51.854;4.534;2023-02-28T01:19:34;4.67;;;1.83;;
40252;SDS011;25972;51.854;4.534;2023-02-28T01:22:05;6.33;;;2.10;;
40252;SDS011;25972;51.854;4.534;2023-02-28T01:24:33;5.30;;;1.83;;
40252;SDS011;25972;51.854;4.534;2023-02-28T01:27:00;6.28;;;1.75;;
40252;SDS011;25972;51.854;4.534;2023-02-28T01:29:26;4.97;;;1.67;;
40252;SDS011;25972;51.854;4.534;2023-02-28T01:31:52;5.82;;;1.67;;
40252;SDS011;25972;51.854;4.534;2023-02-28T01:34:19;5.30;;;1.83;;
40252;SDS011;25972;51.854;4.534;2023-02-28T01:36:45;6.10;;;2.22;;
40252;SDS011;25972;51.854;4.534;2023-02-28T01:39:11;4.55;;;1.75;;
40252;SDS011;25972;51.854;4.534;2023-02-28T01:41:38;6.55;;;2.00;;
40252;SDS011;25972;51.854;4.534;2023-02-28T01:44:53;4.32;;;1.80;;
40252;SDS011;25972;51.854;4.534;2023-02-28T01:47:11;5.28;;;1.98;;
40252;SDS011;25972;51.854;4.534;2023-02-28T01:49:37;5.05;;;1.92;;
40252;SDS011;25972;51.854;4.534;2023-02-28T01:52:03;3.40;;;1.63;;
40252;SDS011;25972;51.854;4.534;2023-02-28T01:54:30;6.57;;;1.98;;
40252;SDS011;25972;51.854;4.534;2023-02-28T01:57:03;4.28;;;1.52;;
40252;SDS011;25972;51.854;4.534;2023-02-28T01:59:37;4.90;;;1.80;;
40252;SDS011;25972;51.854;4.534;2023-02-28T02:02:14;4.82;;;1.58;;
40252;SDS011;25972;51.854;4.534;2023-02-28T02:04:44;5.47;;;1.83;;
40252;SDS011;25972;51.854;4.534;2023-02-28T02:07:17;2.78;;;1.60;;
40252;SDS011;25972;51.854;4.534;2023-02-28T02:09:43;4.75;;;1.80;;
40252;SDS011;25972;51.854;4.534;2023-02-28T02:12:53;6.45;;;1.63;;
40252;SDS011;25972;51.854;4.534;2023-02-28T02:15:24;4.30;;;1.77;;
40252;SDS011;25972;51.854;4.534;2023-02-28T02:18:06;4.25;;;1.58;;
40252;SDS011;25972;51.854;4.534;2023-02-28T02:35:04;5.00;;;2.05;;
40252;SDS011;25972;51.854;4.534;2023-02-28T02:37:43;4.25;;;1.58;;
40252;SDS011;25972;51.854;4.534;2023-02-28T02:45:29;6.63;;;1.85;;
40252;SDS011;25972;51.854;4.534;2023-02-28T02:48:20;4.32;;;2.00;;
40252;SDS011;25972;51.854;4.534;2023-02-28T02:50:54;7.80;;;2.25;;
40252;SDS011;25972;51.854;4.534;2023-02-28T02:53:37;5.18;;;2.20;;
40252;SDS011;25972;51.854;4.534;2023-02-28T02:56:43;8.77;;;2.10;;
40252;SDS011;25972;51.854;4.534;2023-02-28T02:59:12;4.75;;;2.00;;
40252;SDS011;25972;51.854;4.534;2023-02-28T03:01:55;5.40;;;1.70;;
40252;SDS011;25972;51.854;4.534;2023-02-28T03:04:25;4.55;;;2.08;;
40252;SDS011;25972;51.854;4.534;2023-02-28T03:06:55;5.75;;;2.17;;
40252;SDS011;25972;51.854;4.534;2023-02-28T03:09:22;5.43;;;1.98;;
40252;SDS011;25972;51.854;4.534;2023-02-28T03:11:48;7.28;;;2.30;;
40252;SDS011;25972;51.854;4.534;2023-02-28T03:28:05;7.68;;;2.08;;
40252;SDS011;25972;51.854;4.534;2023-02-28T03:30:42;7.75;;;2.20;;
40252;SDS011;25972;51.854;4.534;2023-02-28T03:33:30;6.57;;;2.50;;
40252;SDS011;25972;51.854;4.534;2023-02-28T03:36:04;7.57;;;2.70;;
40252;SDS011;25972;51.854;4.534;2023-02-28T03:38:41;4.85;;;2.13;;
40252;SDS011;25972;51.854;4.534;2023-02-28T03:41:16;9.30;;;2.53;;
40252;SDS011;25972;51.854;4.534;2023-02-28T03:43:53;6.35;;;2.30;;
40252;SDS011;25972;51.854;4.534;2023-02-28T03:46:24;4.38;;;2.20;;
40252;SDS011;25972;51.854;4.534;2023-02-28T03:49:14;5.65;;;2.20;;
40252;SDS011;25972;51.854;4.534;2023-02-28T03:52:04;5.63;;;2.45;;
40252;SDS011;25972;51.854;4.534;2023-02-28T03:54:33;6.43;;;2.28;;
40252;SDS011;25972;51.854;4.534;2023-02-28T03:57:07;4.22;;;2.08;;
40252;SDS011;25972;51.854;4.534;2023-02-28T03:59:44;7.43;;;2.58;;
40252;SDS011;25972;51.854;4.534;2023-02-28T04:02:14;12.00;;;2.88;;
40252;SDS011;25972;51.854;4.534;2023-02-28T04:04:40;6.72;;;2.53;;
40252;SDS011;25972;51.854;4.534;2023-02-28T04:07:10;7.28;;;2.80;;
40252;SDS011;25972;51.854;4.534;2023-02-28T04:09:36;6.75;;;2.85;;
40252;SDS011;25972;51.854;4.534;2023-02-28T04:12:03;6.55;;;2.13;;
40252;SDS011;25972;51.854;4.534;2023-02-28T04:14:29;8.30;;;2.60;;
40252;SDS011;25972;51.854;4.534;2023-02-28T04:16:55;6.47;;;2.35;;
40252;SDS011;25972;51.854;4.534;2023-02-28T04:19:20;6.22;;;3.08;;
40252;SDS011;25972;51.854;4.534;2023-02-28T04:21:48;6.32;;;2.67;;
40252;SDS011;25972;51.854;4.534;2023-02-28T04:24:19;6.55;;;2.75;;
40252;SDS011;25972;51.854;4.534;2023-02-28T04:26:47;5.35;;;2.75;;
40252;SDS011;25972;51.854;4.534;2023-02-28T04:29:26;6.15;;;2.20;;
40252;SDS011;25972;51.854;4.534;2023-02-28T04:31:54;7.35;;;2.50;;
40252;SDS011;25972;51.854;4.534;2023-02-28T04:34:24;5.65;;;2.30;;
40252;SDS011;25972;51.854;4.534;2023-02-28T04:36:55;4.93;;;2.03;;
40252;SDS011;25972;51.854;4.534;2023-02-28T04:39:22;7.40;;;2.13;;
40252;SDS011;25972;51.854;4.534;2023-02-28T04:41:49;4.65;;;2.17;;
40252;SDS011;25972;51.854;4.534;2023-02-28T04:44:15;6.05;;;2.50;;
40252;SDS011;25972;51.854;4.534;2023-02-28T04:46:42;5.18;;;2.22;;
40252;SDS011;25972;51.854;4.534;2023-02-28T04:49:10;6.70;;;2.53;;
40252;SDS011;25972;51.854;4.534;2023-02-28T04:51:38;7.88;;;2.80;;
40252;SDS011;25972;51.854;4.534;2023-02-28T04:54:04;10.27;;;3.30;;
40252;SDS011;25972;51.854;4.534;2023-02-28T04:56:30;9.52;;;2.60;;
40252;SDS011;25972;51.854;4.534;2023-02-28T04:58:56;6.25;;;2.95;;
40252;SDS011;25972;51.854;4.534;2023-02-28T05:01:26;8.50;;;2.97;;
40252;SDS011;25972;51.854;4.534;2023-02-28T05:03:54;5.30;;;2.60;;
40252;SDS011;25972;51.854;4.534;2023-02-28T05:06:22;6.35;;;2.65;;
40252;SDS011;25972;51.854;4.534;2023-02-28T05:08:50;5.70;;;2.72;;
40252;SDS011;25972;51.854;4.534;2023-02-28T05:11:20;7.68;;;2.80;;
40252;SDS011;25972;51.854;4.534;2023-02-28T05:13:46;11.13;;;3.35;;
40252;SDS011;25972;51.854;4.534;2023-02-28T05:16:13;8.07;;;2.85;;
40252;SDS011;25972;51.854;4.534;2023-02-28T05:18:40;6.55;;;2.80;;
40252;SDS011;25972;51.854;4.534;2023-02-28T05:21:12;4.93;;;2.45;;
40252;SDS011;25972;51.854;4.534;2023-02-28T05:23:49;5.43;;;2.72;;
40252;SDS011;25972;51.854;4.534;2023-02-28T05:26:15;6.38;;;2.20;;
40252;SDS011;25972;51.854;4.534;2023-02-28T05:28:40;8.27;;;3.00;;
40252;SDS011;25972;51.854;4.534;2023-02-28T05:31:07;10.18;;;3.65;;
40252;SDS011;25972;51.854;4.534;2023-02-28T05:33:35;7.50;;;3.58;;
40252;SDS011;25972;51.854;4.534;2023-02-28T05:36:01;7.22;;;3.83;;
40252;SDS011;25972;51.854;4.534;2023-02-28T05:38:27;8.38;;;3.45;;
40252;SDS011;25972;51.854;4.534;2023-02-28T05:40:54;12.63;;;3.67;;
40252;SDS011;25972;51.854;4.534;2023-02-28T05:43:25;8.27;;;4.43;;
40252;SDS011;25972;51.854;4.534;2023-02-28T05:46:12;8.60;;;3.53;;
40252;SDS011;25972;51.854;4.534;2023-02-28T05:48:47;8.43;;;3.20;;
40252;SDS011;25972;51.854;4.534;2023-02-28T05:54:00;6.30;;;2.97;;
40252;SDS011;25972;51.854;4.534;2023-02-28T05:56:56;10.02;;;3.60;;
40252;SDS011;25972;51.854;4.534;2023-02-28T05:59:26;8.52;;;4.10;;
40252;SDS011;25972;51.854;4.534;2023-02-28T06:02:12;4.97;;;2.15;;
40252;SDS011;25972;51.854;4.534;2023-02-28T06:05:05;5.82;;;2.72;;
40252;SDS011;25972;51.854;4.534;2023-02-28T06:13:15;5.20;;;2.28;;
40252;SDS011;25972;51.854;4.534;2023-02-28T06:15:47;8.68;;;3.28;;
40252;SDS011;25972;51.854;4.534;2023-02-28T06:18:15;7.50;;;2.60;;
40252;SDS011;25972;51.854;4.534;2023-02-28T06:20:41;9.75;;;3.13;;
40252;SDS011;25972;51.854;4.534;2023-02-28T06:23:13;6.38;;;2.92;;
40252;SDS011;25972;51.854;4.534;2023-02-28T06:25:39;5.53;;;2.63;;
40252;SDS011;25972;51.854;4.534;2023-02-28T06:28:12;8.60;;;3.10;;
40252;SDS011;25972;51.854;4.534;2023-02-28T06:31:30;8.50;;;3.10;;
40252;SDS011;25972;51.854;4.534;2023-02-28T06:33:58;7.25;;;3.10;;
40252;SDS011;25972;51.854;4.534;2023-02-28T06:36:24;7.75;;;3.58;;
40252;SDS011;25972;51.854;4.534;2023-02-28T06:38:50;5.50;;;2.78;;
40252;SDS011;25972;51.854;4.534;2023-02-28T06:41:21;8.85;;;2.97;;
40252;SDS011;25972;51.854;4.534;2023-02-28T06:44:08;8.15;;;3.25;;
40252;SDS011;25972;51.854;4.534;2023-02-28T06:46:47;4.53;;;2.30;;
40252;SDS011;25972;51.854;4.534;2023-02-28T06:49:46;3.88;;;1.52;;
40252;SDS011;25972;51.854;4.534;2023-02-28T06:52:16;9.80;;;4.60;;
40252;SDS011;25972;51.854;4.534;2023-02-28T06:54:42;4.47;;;1.65;;
40252;SDS011;25972;51.854;4.534;2023-02-28T06:57:08;5.13;;;2.00;;
40252;SDS011;25972;51.854;4.534;2023-02-28T06:59:34;2.47;;;1.25;;
40252;SDS011;25972;51.854;4.534;2023-02-28T07:02:00;3.95;;;1.75;;
40252;SDS011;25972;51.854;4.534;2023-02-28T07:04:27;4.88;;;2.22;;
40252;SDS011;25972;51.854;4.534;2023-02-28T07:06:55;8.27;;;2.80;;
40252;SDS011;25972;51.854;4.534;2023-02-28T07:09:22;4.10;;;1.98;;
40252;SDS011;25972;51.854;4.534;2023-02-28T07:11:48;2.65;;;1.65;;
40252;SDS011;25972;51.854;4.534;2023-02-28T07:14:14;4.03;;;1.80;;
40252;SDS011;25972;51.854;4.534;2023-02-28T07:16:40;8.07;;;2.87;;
40252;SDS011;25972;51.854;4.534;2023-02-28T07:19:05;5.72;;;1.98;;
40252;SDS011;25972;51.854;4.534;2023-02-28T07:21:31;6.43;;;2.73;;
40252;SDS011;25972;51.854;4.534;2023-02-28T07:23:57;5.63;;;2.47;;
40252;SDS011;25972;51.854;4.534;2023-02-28T07:26:23;7.63;;;2.60;;
40252;SDS011;25972;51.854;4.534;2023-02-28T07:28:49;5.37;;;2.77;;
40252;SDS011;25972;51.854;4.534;2023-02-28T07:31:15;7.13;;;2.77;;
40252;SDS011;25972;51.854;4.534;2023-02-28T07:33:42;5.73;;;2.80;;
40252;SDS011;25972;51.854;4.534;2023-02-28T07:36:10;5.20;;;2.70;;
40252;SDS011;25972;51.854;4.534;2023-02-28T07:38:43;5.30;;;2.50;;
40252;SDS011;25972;51.854;4.534;2023-02-28T07:41:12;7.07;;;3.47;;
40252;SDS011;25972;51.854;4.534;2023-02-28T07:43:37;7.03;;;2.63;;
40252;SDS011;25972;51.854;4.534;2023-02-28T07:46:04;6.38;;;2.92;;
40252;SDS011;25972;51.854;4.534;2023-02-28T07:48:31;6.60;;;3.13;;
40252;SDS011;25972;51.854;4.534;2023-02-28T07:50:58;5.40;;;2.77;;
40252;SDS011;25972;51.854;4.534;2023-02-28T07:53:24;5.93;;;2.70;;
40252;SDS011;25972;51.854;4.534;2023-02-28T07:56:00;8.23;;;2.70;;
40252;SDS011;25972;51.854;4.534;2023-02-28T07:58:27;5.80;;;2.92;;
40252;SDS011;25972;51.854;4.534;2023-02-28T08:01:27;7.40;;;2.90;;
40252;SDS011;25972;51.854;4.534;2023-02-28T08:03:46;6.22;;;2.70;;
40252;SDS011;25972;51.854;4.534;2023-02-28T08:06:18;6.27;;;2.83;;
40252;SDS011;25972;51.854;4.534;2023-02-28T08:11:11;6.40;;;2.63;;
40252;SDS011;25972;51.854;4.534;2023-02-28T08:13:37;7.68;;;3.00;;
40252;SDS011;25972;51.854;4.534;2023-02-28T08:16:03;6.85;;;2.63;;
40252;SDS011;25972;51.854;4.534;2023-02-28T08:18:29;4.63;;;2.28;;
40252;SDS011;25972;51.854;4.534;2023-02-28T08:20:55;7.95;;;3.05;;
40252;SDS011;25972;51.854;4.534;2023-02-28T08:23:22;5.45;;;2.97;;
40252;SDS011;25972;51.854;4.534;2023-02-28T08:25:54;6.60;;;2.75;;
40252;SDS011;25972;51.854;4.534;2023-02-28T08:28:21;5.20;;;2.38;;
40252;SDS011;25972;51.854;4.534;2023-02-28T08:30:47;7.55;;;3.00;;
40252;SDS011;25972;51.854;4.534;2023-02-28T08:33:14;6.03;;;2.33;;
40252;SDS011;25972;51.854;4.534;2023-02-28T08:35:39;8.80;;;3.00;;
40252;SDS011;25972;51.854;4.534;2023-02-28T08:38:05;7.18;;;2.75;;
40252;SDS011;25972;51.854;4.534;2023-02-28T08:40:31;7.00;;;2.78;;
40252;SDS011;25972;51.854;4.534;2023-02-28T08:42:57;6.07;;;2.50;;
40252;SDS011;25972;51.854;4.534;2023-02-28T08:45:23;7.40;;;3.20;;
40252;SDS011;25972;51.854;4.534;2023-02-28T08:47:49;5.40;;;2.75;;
40252;SDS011;25972;51.854;4.534;2023-02-28T08:50:17;8.73;;;2.88;;
40252;SDS011;25972;51.854;4.534;2023-02-28T08:52:43;8.23;;;3.22;;
40252;SDS011;25972;51.854;4.534;2023-02-28T08:55:09;7.60;;;2.63;;
40252;SDS011;25972;51.854;4.534;2023-02-28T08:57:35;6.75;;;3.00;;
40252;SDS011;25972;51.854;4.534;2023-02-28T09:00:01;6.25;;;2.95;;
40252;SDS011;25972;51.854;4.534;2023-02-28T09:02:29;7.80;;;3.22;;
40252;SDS011;25972;51.854;4.534;2023-02-28T09:04:59;5.65;;;2.83;;
40252;SDS011;25972;51.854;4.534;2023-02-28T09:07:25;6.03;;;2.88;;
40252;SDS011;25972;51.854;4.534;2023-02-28T09:09:51;8.82;;;3.03;;
40252;SDS011;25972;51.854;4.534;2023-02-28T09:12:26;8.82;;;3.40;;
40252;SDS011;25972;51.854;4.534;2023-02-28T09:14:56;8.60;;;3.50;;
40252;SDS011;25972;51.854;4.534;2023-02-28T09:17:22;9.75;;;4.07;;
40252;SDS011;25972;51.854;4.534;2023-02-28T09:19:48;7.40;;;3.42;;
40252;SDS011;25972;51.854;4.534;2023-02-28T09:22:14;8.70;;;3.25;;
40252;SDS011;25972;51.854;4.534;2023-02-28T09:24:41;4.05;;;1.70;;
40252;SDS011;25972;51.854;4.534;2023-02-28T09:27:06;7.45;;;2.50;;
40252;SDS011;25972;51.854;4.534;2023-02-28T09:29:32;10.30;;;3.15;;
40252;SDS011;25972;51.854;4.534;2023-02-28T09:31:59;6.10;;;3.10;;
40252;SDS011;25972;51.854;4.534;2023-02-28T09:34:26;10.50;;;3.70;;
40252;SDS011;25972;51.854;4.534;2023-02-28T09:36:52;9.63;;;3.95;;
40252;SDS011;25972;51.854;4.534;2023-02-28T09:39:20;12.30;;;4.35;;
40252;SDS011;25972;51.854;4.534;2023-02-28T09:41:47;9.68;;;3.60;;
40252;SDS011;25972;51.854;4.534;2023-02-28T09:44:18;10.07;;;3.63;;
40252;SDS011;25972;51.854;4.534;2023-02-28T09:46:51;8.98;;;4.28;;
40252;SDS011;25972;51.854;4.534;2023-02-28T09:49:23;8.80;;;3.58;;
40252;SDS011;25972;51.854;4.534;2023-02-28T09:54:27;7.10;;;2.72;;
40252;SDS011;25972;51.854;4.534;2023-02-28T09:57:00;7.32;;;2.75;;
40252;SDS011;25972;51.854;4.534;2023-02-28T10:05:53;6.72;;;3.38;;
40252;SDS011;25972;51.854;4.534;2023-02-28T10:11:16;4.90;;;2.78;;
40252;SDS011;25972;51.854;4.534;2023-02-28T10:16:58;7.82;;;3.30;;
40252;SDS011;25972;51.854;4.534;2023-02-28T10:21:55;7.40;;;2.90;;
40252;SDS011;25972;51.854;4.534;2023-02-28T10:24:33;6.55;;;2.78;;
40252;SDS011;25972;51.854;4.534;2023-02-28T10:27:20;6.38;;;3.13;;
40252;SDS011;25972;51.854;4.534;2023-02-28T10:29:51;7.22;;;3.17;;
40252;SDS011;25972;51.854;4.534;2023-02-28T10:32:22;10.32;;;3.40;;
40252;SDS011;25972;51.854;4.534;2023-02-28T10:35:01;6.65;;;3.40;;
40252;SDS011;25972;51.854;4.534;2023-02-28T10:37:38;6.97;;;3.17;;
40252;SDS011;25972;51.854;4.534;2023-02-28T10:45:31;4.28;;;2.22;;
40252;SDS011;25972;51.854;4.534;2023-02-28T10:48:33;5.10;;;2.47;;
40252;SDS011;25972;51.854;4.534;2023-02-28T10:51:13;2.38;;;1.83;;
40252;SDS011;25972;51.854;4.534;2023-02-28T10:56:23;2.75;;;1.45;;
40252;SDS011;25972;51.854;4.534;2023-02-28T11:01:21;2.63;;;1.67;;
40252;SDS011;25972;51.854;4.534;2023-02-28T11:04:11;3.80;;;1.48;;
40252;SDS011;25972;51.854;4.534;2023-02-28T11:06:48;3.05;;;1.70;;
40252;SDS011;25972;51.854;4.534;2023-02-28T11:11:54;2.33;;;1.10;;
40252;SDS011;25972;51.854;4.534;2023-02-28T11:14:25;3.00;;;1.38;;
40252;SDS011;25972;51.854;4.534;2023-02-28T11:17:11;2.53;;;1.35;;
40252;SDS011;25972;51.854;4.534;2023-02-28T11:19:44;3.03;;;1.50;;
40252;SDS011;25972;51.854;4.534;2023-02-28T11:22:16;1.58;;;1.05;;
40252;SDS011;25972;51.854;4.534;2023-02-28T11:25:15;4.32;;;1.75;;
40252;SDS011;25972;51.854;4.534;2023-02-28T11:27:48;3.60;;;1.75;;
40252;SDS011;25972;51.854;4.534;2023-02-28T11:30:34;3.15;;;1.42;;
40252;SDS011;25972;51.854;4.534;2023-02-28T11:36:23;3.38;;;1.77;;
40252;SDS011;25972;51.854;4.534;2023-02-28T11:38:50;2.67;;;1.30;;
40252;SDS011;25972;51.854;4.534;2023-02-28T11:41:33;1.73;;;1.15;;
40252;SDS011;25972;51.854;4.534;2023-02-28T12:06:54;1.80;;;1.13;;
40252;SDS011;25972;51.854;4.534;2023-02-28T12:12:39;3.38;;;1.80;;
40252;SDS011;25972;51.854;4.534;2023-02-28T12:17:59;3.55;;;1.60;;
40252;SDS011;25972;51.854;4.534;2023-02-28T12:20:41;3.50;;;1.60;;
40252;SDS011;25972;51.854;4.534;2023-02-28T12:23:25;1.98;;;1.40;;
40252;SDS011;25972;51.854;4.534;2023-02-28T12:28:44;2.88;;;1.73;;
40252;SDS011;25972;51.854;4.534;2023-02-28T12:31:26;2.65;;;1.70;;
40252;SDS011;25972;51.854;4.534;2023-02-28T12:34:02;3.40;;;1.65;;
40252;SDS011;25972;51.854;4.534;2023-02-28T12:36:31;2.35;;;1.70;;
40252;SDS011;25972;51.854;4.534;2023-02-28T12:44:13;1.83;;;1.17;;
40252;SDS011;25972;51.854;4.534;2023-02-28T12:46:51;5.07;;;2.08;;
40252;SDS011;25972;51.854;4.534;2023-02-28T12:52:13;2.95;;;1.10;;
40252;SDS011;25972;51.854;4.534;2023-02-28T12:54:44;4.68;;;2.03;;
40252;SDS011;25972;51.854;4.534;2023-02-28T12:57:43;2.22;;;1.40;;
40252;SDS011;25972;51.854;4.534;2023-02-28T13:00:29;3.45;;;1.02;;
40252;SDS011;25972;51.854;4.534;2023-02-28T13:08:41;2.30;;;1.35;;
40252;SDS011;25972;51.854;4.534;2023-02-28T13:14:05;3.92;;;2.15;;
40252;SDS011;25972;51.854;4.534;2023-02-28T13:19:45;5.75;;;1.88;;
40252;SDS011;25972;51.854;4.534;2023-02-28T13:27:25;1.95;;;1.17;;
40252;SDS011;25972;51.854;4.534;2023-02-28T13:30:02;5.30;;;2.60;;
40252;SDS011;25972;51.854;4.534;2023-02-28T13:35:45;2.22;;;0.85;;
40252;SDS011;25972;51.854;4.534;2023-02-28T13:38:16;3.45;;;1.92;;
40252;SDS011;25972;51.854;4.534;2023-02-28T13:40:49;3.80;;;2.13;;
40252;SDS011;25972;51.854;4.534;2023-02-28T13:43:16;4.10;;;1.83;;
40252;SDS011;25972;51.854;4.534;2023-02-28T13:48:30;3.90;;;2.10;;
40252;SDS011;25972;51.854;4.534;2023-02-28T13:50:56;2.10;;;1.13;;
40252;SDS011;25972;51.854;4.534;2023-02-28T13:53:26;2.35;;;1.33;;
40252;SDS011;25972;51.854;4.534;2023-02-28T13:58:58;3.92;;;2.15;;
40252;SDS011;25972;51.854;4.534;2023-02-28T14:01:44;1.75;;;1.38;;
40252;SDS011;25972;51.854;4.534;2023-02-28T14:07:20;1.33;;;1.08;;
40252;SDS011;25972;51.854;4.534;2023-02-28T14:09:56;1.90;;;1.30;;
40252;SDS011;25972;51.854;4.534;2023-02-28T14:15:27;1.88;;;1.23;;
40252;SDS011;25972;51.854;4.534;2023-02-28T14:20:55;5.25;;;2.08;;
40252;SDS011;25972;51.854;4.534;2023-02-28T14:28:43;2.55;;;1.40;;
40252;SDS011;25972;51.854;4.534;2023-02-28T14:31:24;2.33;;;1.52;;
40252;SDS011;25972;51.854;4.534;2023-02-28T14:34:13;3.28;;;2.17;;
40252;SDS011;25972;51.854;4.534;2023-02-28T14:36:45;2.97;;;1.65;;
40252;SDS011;25972;51.854;4.534;2023-02-28T14:39:13;3.05;;;1.65;;
40252;SDS011;25972;51.854;4.534;2023-02-28T14:44:18;2.97;;;1.33;;
40252;SDS011;25972;51.854;4.534;2023-02-28T14:46:59;2.13;;;1.35;;
40252;SDS011;25972;51.854;4.534;2023-02-28T14:49:35;5.40;;;2.10;;
40252;SDS011;25972;51.854;4.534;2023-02-28T14:54:38;4.05;;;1.70;;
40252;SDS011;25972;51.854;4.534;2023-02-28T14:57:04;4.15;;;1.95;;
40252;SDS011;25972;51.854;4.534;2023-02-28T14:59:34;2.20;;;1.27;;
40252;SDS011;25972;51.854;4.534;2023-02-28T15:05:33;3.72;;;1.90;;
40252;SDS011;25972;51.854;4.534;2023-02-28T15:07:41;3.38;;;1.45;;
40252;SDS011;25972;51.854;4.534;2023-02-28T15:10:08;1.48;;;1.05;;
40252;SDS011;25972;51.854;4.534;2023-02-28T15:12:36;5.97;;;2.10;;
40252;SDS011;25972;51.854;4.534;2023-02-28T15:15:04;6.43;;;2.03;;
40252;SDS011;25972;51.854;4.534;2023-02-28T15:17:31;4.13;;;1.80;;
40252;SDS011;25972;51.854;4.534;2023-02-28T15:19:57;3.60;;;2.00;;
40252;SDS011;25972;51.854;4.534;2023-02-28T15:22:28;4.30;;;1.58;;
40252;SDS011;25972;51.854;4.534;2023-02-28T15:24:59;3.95;;;1.70;;
40252;SDS011;25972;51.854;4.534;2023-02-28T15:27:27;3.45;;;1.90;;
40252;SDS011;25972;51.854;4.534;2023-02-28T15:29:57;4.90;;;2.05;;
40252;SDS011;25972;51.854;4.534;2023-02-28T15:32:26;3.13;;;1.85;;
40252;SDS011;25972;51.854;4.534;2023-02-28T15:34:54;3.90;;;1.98;;
40252;SDS011;25972;51.854;4.534;2023-02-28T15:37:40;3.67;;;1.98;;
40252;SDS011;25972;51.854;4.534;2023-02-28T15:40:13;3.90;;;2.00;;
40252;SDS011;25972;51.854;4.534;2023-02-28T15:48:31;5.10;;;2.13;;
40252;SDS011;25972;51.854;4.534;2023-02-28T15:51:07;2.95;;;1.58;;
40252;SDS011;25972;51.854;4.534;2023-02-28T15:53:48;3.53;;;1.90;;
40252;SDS011;25972;51.854;4.534;2023-02-28T15:56:25;3.92;;;1.77;;
40252;SDS011;25972;51.854;4.534;2023-02-28T15:58:54;3.25;;;2.10;;
40252;SDS011;25972;51.854;4.534;2023-02-28T16:01:25;5.63;;;2.33;;
40252;SDS011;25972;51.854;4.534;2023-02-28T16:04:00;10.70;;;4.97;;
40252;SDS011;25972;51.854;4.534;2023-02-28T16:07:04;4.43;;;2.22;;
40252;SDS011;25972;51.854;4.534;2023-02-28T16:09:31;4.35;;;2.05;;
40252;SDS011;25972;51.854;4.534;2023-02-28T16:12:00;4.28;;;1.98;;
40252;SDS011;25972;51.854;4.534;2023-02-28T16:14:28;4.90;;;2.38;;
40252;SDS011;25972;51.854;4.534;2023-02-28T16:17:04;4.85;;;2.35;;
40252;SDS011;25972;51.854;4.534;2023-02-28T16:21:59;1.92;;;1.38;;
40252;SDS011;25972;51.854;4.534;2023-02-28T16:24:26;2.85;;;1.80;;
40252;SDS011;25972;51.854;4.534;2023-02-28T16:26:52;3.38;;;1.90;;
40252;SDS011;25972;51.854;4.534;2023-02-28T16:29:30;3.95;;;1.95;;
40252;SDS011;25972;51.854;4.534;2023-02-28T16:31:59;4.60;;;1.98;;
40252;SDS011;25972;51.854;4.534;2023-02-28T16:34:26;3.90;;;1.95;;
40252;SDS011;25972;51.854;4.534;2023-02-28T16:36:52;4.57;;;2.25;;
40252;SDS011;25972;51.854;4.534;2023-02-28T16:39:18;2.97;;;2.00;;
40252;SDS011;25972;51.854;4.534;2023-02-28T16:41:45;5.80;;;2.38;;
40252;SDS011;25972;51.854;4.534;2023-02-28T16:46:51;3.10;;;1.90;;
40252;SDS011;25972;51.854;4.534;2023-02-28T16:49:17;4.65;;;2.15;;
40252;SDS011;25972;51.854;4.534;2023-02-28T16:51:46;3.63;;;1.75;;
40252;SDS011;25972;51.854;4.534;2023-02-28T16:54:12;3.08;;;1.83;;
40252;SDS011;25972;51.854;4.534;2023-02-28T16:56:39;3.58;;;1.83;;
40252;SDS011;25972;51.854;4.534;2023-02-28T16:59:09;3.53;;;1.55;;
40252;SDS011;25972;51.854;4.534;2023-02-28T17:01:36;5.22;;;2.03;;
40252;SDS011;25972;51.854;4.534;2023-02-28T17:04:02;3.30;;;2.17;;
40252;SDS011;25972;51.854;4.534;2023-02-28T17:06:28;5.35;;;2.20;;
40252;SDS011;25972;51.854;4.534;2023-02-28T17:08:54;1.48;;;1.13;;
40252;SDS011;25972;51.854;4.534;2023-02-28T17:11:21;7.88;;;2.42;;
40252;SDS011;25972;51.854;4.534;2023-02-28T17:13:47;3.63;;;2.08;;
40252;SDS011;25972;51.854;4.534;2023-02-28T17:16:28;4.18;;;2.17;;
40252;SDS011;25972;51.854;4.534;2023-02-28T17:18:57;4.32;;;2.47;;
40252;SDS011;25972;51.854;4.534;2023-02-28T17:21:28;4.23;;;2.23;;
40252;SDS011;25972;51.854;4.534;2023-02-28T17:23:54;4.10;;;2.40;;
40252;SDS011;25972;51.854;4.534;2023-02-28T17:26:20;5.05;;;2.25;;
40252;SDS011;25972;51.854;4.534;2023-02-28T17:28:49;6.45;;;2.63;;
40252;SDS011;25972;51.854;4.534;2023-02-28T17:31:16;6.95;;;2.60;;
40252;SDS011;25972;51.854;4.534;2023-02-28T17:33:43;3.95;;;2.35;;
40252;SDS011;25972;51.854;4.534;2023-02-28T17:36:13;6.90;;;3.00;;
40252;SDS011;25972;51.854;4.534;2023-02-28T17:38:51;6.90;;;2.72;;
40252;SDS011;25972;51.854;4.534;2023-02-28T17:41:18;4.70;;;2.50;;
40252;SDS011;25972;51.854;4.534;2023-02-28T17:43:47;6.00;;;2.50;;
40252;SDS011;25972;51.854;4.534;2023-02-28T17:46:36;6.32;;;2.30;;
40252;SDS011;25972;51.854;4.534;2023-02-28T17:49:02;7.07;;;2.45;;
40252;SDS011;25972;51.854;4.534;2023-02-28T17:51:29;4.80;;;2.55;;
40252;SDS011;25972;51.854;4.534;2023-02-28T17:53:54;5.80;;;2.75;;
40252;SDS011;25972;51.854;4.534;2023-02-28T17:56:21;7.10;;;2.78;;
40252;SDS011;25972;51.854;4.534;2023-02-28T17:58:49;7.65;;;3.28;;
40252;SDS011;25972;51.854;4.534;2023-02-28T18:01:16;6.00;;;3.08;;
40252;SDS011;25972;51.854;4.534;2023-02-28T18:03:42;3.75;;;2.28;;
40252;SDS011;25972;51.854;4.534;2023-02-28T18:06:15;4.45;;;2.50;;
40252;SDS011;25972;51.854;4.534;2023-02-28T18:08:43;6.30;;;2.80;;